createdAt,value
2018-08-06T00:00:25.681Z,74.00
2018-08-06T00:10:20.806Z,73.90
2018-08-06T00:12:49.483Z,73.70
2018-08-06T00:15:18.144Z,74.70
2018-08-06T00:17:46.742Z,74.80
2018-08-06T00:20:15.947Z,74.40
2018-08-06T00:22:44.691Z,74.00
2018-08-06T00:32:41.721Z,77.60
2018-08-06T00:35:10.934Z,77.90
2018-08-06T00:37:39.803Z,78.80
2018-08-06T00:40:12.865Z,79.30
2018-08-06T00:42:42.237Z,80.00
2018-08-06T00:45:12.676Z,80.30
2018-08-06T00:50:09.930Z,81.80
2018-08-06T00:55:15.143Z,85.50
2018-08-06T00:57:43.757Z,87.20
2018-08-06T01:00:14.428Z,88.10
2018-08-06T01:02:43.020Z,88.80
2018-08-06T01:05:12.780Z,87.30
2018-08-06T01:07:41.908Z,87.90
2018-08-06T01:12:40.148Z,90.00
2018-08-06T01:15:10.182Z,88.80
2018-08-06T01:17:38.815Z,88.80
2018-08-06T01:20:09.227Z,88.00
2018-08-06T01:25:06.715Z,85.40
2018-08-06T01:30:04.998Z,84.10
2018-08-06T01:35:01.857Z,84.00
2018-08-06T01:39:58.765Z,84.40
2018-08-06T01:42:27.357Z,84.20
2018-08-06T01:44:56.026Z,83.40
2018-08-06T01:47:24.628Z,82.90
2018-08-06T01:49:53.260Z,80.50
2018-08-06T01:54:50.211Z,80.20
2018-08-06T02:02:15.707Z,81.70
2018-08-06T02:04:44.348Z,81.40
2018-08-06T02:07:12.983Z,81.70
2018-08-06T02:09:41.619Z,81.70
2018-08-06T02:17:07.422Z,81.80
2018-08-06T02:19:35.694Z,82.10
2018-08-06T02:22:04.350Z,82.40
2018-08-06T02:24:32.927Z,83.00
2018-08-06T02:27:01.539Z,83.60
2018-08-06T02:29:30.184Z,84.20
2018-08-06T02:39:23.610Z,83.80
2018-08-06T02:41:52.223Z,82.90
2018-08-06T02:44:20.827Z,83.20
2018-08-06T02:46:49.451Z,83.50
2018-08-06T02:51:46.339Z,82.20
2018-08-06T02:54:14.911Z,82.30
2018-08-06T02:56:43.532Z,82.50
2018-08-06T02:59:12.210Z,82.70
2018-08-06T03:01:40.852Z,82.40
2018-08-06T03:04:09.460Z,82.80
2018-08-06T03:06:38.105Z,81.70
2018-08-06T03:09:09.513Z,82.40
2018-08-06T03:11:38.232Z,82.70
2018-08-06T03:14:06.920Z,83.20
2018-08-06T03:16:35.559Z,84.00
2018-08-06T03:19:04.287Z,82.30
2018-08-06T03:21:32.928Z,81.50
2018-08-06T03:24:01.538Z,82.20
2018-08-06T03:26:30.183Z,81.10
2018-08-06T03:28:58.753Z,81.80
2018-08-06T03:33:55.760Z,81.60
2018-08-06T03:36:24.370Z,81.80
2018-08-06T03:38:52.969Z,82.60
2018-08-06T03:41:21.579Z,83.30
2018-08-06T03:46:18.551Z,83.40
2018-08-06T03:48:47.171Z,82.80
2018-08-06T03:51:15.797Z,83.50
2018-08-06T03:56:12.647Z,83.40
2018-08-06T04:01:09.716Z,83.40
2018-08-06T04:11:03.143Z,82.70
2018-08-06T04:16:00.045Z,83.80
2018-08-06T04:18:28.687Z,83.10
2018-08-06T04:23:25.628Z,83.20
2018-08-06T04:25:54.413Z,83.50
2018-08-06T04:28:23.086Z,84.10
2018-08-06T04:30:51.712Z,83.50
2018-08-06T04:35:48.614Z,82.70
2018-08-06T04:38:17.244Z,83.70
2018-08-06T04:43:14.168Z,84.40
2018-08-06T04:45:42.771Z,84.80
2018-08-06T04:48:11.372Z,85.30
2018-08-06T04:50:40.019Z,85.60
2018-08-06T04:53:08.638Z,87.20
2018-08-06T04:55:37.299Z,87.90
2018-08-06T04:58:06.157Z,89.40
2018-08-06T05:00:34.758Z,90.80
2018-08-06T05:03:03.356Z,92.00
2018-08-06T05:05:32.011Z,92.80
2018-08-06T05:08:00.638Z,93.90
2018-08-06T05:10:29.322Z,95.30
2018-08-06T05:12:57.946Z,95.40
2018-08-06T05:15:26.585Z,95.90
2018-08-06T05:17:55.253Z,96.40
2018-08-06T05:20:23.883Z,97.00
2018-08-06T05:25:20.752Z,99.40
2018-08-06T05:30:17.738Z,99.90
2018-08-06T05:35:14.574Z,99.90
2018-08-06T05:45:09.093Z,99.90
2018-08-06T05:47:38.011Z,99.90
2018-08-06T05:52:36.394Z,99.90
2018-08-06T05:57:33.795Z,99.90
2018-08-06T06:00:02.379Z,99.90
2018-08-06T06:02:30.981Z,99.90
2018-08-06T06:04:59.638Z,99.90
2018-08-06T06:09:56.618Z,99.90
2018-08-06T06:12:25.247Z,99.90
2018-08-06T06:14:53.886Z,99.90
2018-08-06T06:17:22.527Z,99.90
2018-08-06T06:19:51.304Z,99.90
2018-08-06T06:22:19.939Z,99.90
2018-08-06T06:24:48.601Z,99.90
2018-08-06T06:29:45.608Z,99.90
2018-08-06T06:32:14.242Z,99.90
2018-08-06T06:34:42.914Z,99.90
2018-08-06T06:37:11.530Z,99.90
2018-08-06T06:42:08.488Z,99.90
2018-08-06T06:44:37.119Z,99.90
2018-08-06T06:47:05.906Z,99.90
2018-08-06T06:49:34.600Z,99.90
2018-08-06T06:52:03.254Z,99.90
2018-08-06T06:54:31.997Z,99.90
2018-08-06T06:57:00.543Z,99.90
2018-08-06T06:59:29.156Z,99.90
2018-08-06T07:01:57.834Z,99.90
2018-08-06T07:04:26.502Z,99.90
2018-08-06T07:06:55.142Z,99.90
2018-08-06T07:11:52.142Z,99.90
2018-08-06T07:19:17.574Z,99.90
2018-08-06T07:21:46.212Z,99.90
2018-08-06T07:24:14.828Z,99.90
2018-08-06T07:26:43.485Z,99.90
2018-08-06T07:29:12.128Z,99.90
2018-08-06T07:31:40.789Z,99.90
2018-08-06T07:36:37.720Z,99.90
2018-08-06T07:39:08.840Z,99.90
2018-08-06T07:41:37.530Z,99.90
2018-08-06T07:44:06.244Z,99.90
2018-08-06T07:49:03.490Z,99.40
2018-08-06T07:51:32.138Z,99.50
2018-08-06T07:54:00.759Z,99.70
2018-08-06T07:56:29.431Z,97.70
2018-08-06T07:58:58.026Z,98.50
2018-08-06T08:01:26.791Z,98.70
2018-08-06T08:03:55.480Z,97.90
2018-08-06T08:06:24.167Z,95.40
2018-08-06T08:08:52.695Z,95.10
2018-08-06T08:13:49.673Z,93.30
2018-08-06T08:18:46.693Z,90.00
2018-08-06T08:21:15.390Z,90.70
2018-08-06T08:23:44.094Z,89.90
2018-08-06T08:28:41.139Z,84.90
2018-08-06T08:31:09.781Z,86.20
2018-08-06T08:33:38.462Z,86.40
2018-08-06T08:36:07.278Z,83.20
2018-08-06T08:38:35.904Z,82.00
2018-08-06T08:41:04.617Z,80.20
2018-08-06T08:43:33.231Z,79.00
2018-08-06T08:46:01.861Z,80.00
2018-08-06T08:48:30.542Z,80.20
2018-08-06T08:50:59.170Z,80.60
2018-08-06T08:53:27.885Z,78.90
2018-08-06T08:55:56.551Z,76.30
2018-08-06T08:58:25.235Z,75.50
2018-08-06T09:00:56.412Z,73.80
2018-08-06T09:03:25.080Z,73.70
2018-08-06T09:05:53.828Z,73.20
2018-08-06T09:08:22.543Z,69.30
2018-08-06T09:13:19.484Z,66.20
2018-08-06T09:15:48.121Z,65.40
2018-08-06T09:18:16.894Z,63.50
2018-08-06T09:20:45.546Z,62.80
2018-08-06T09:23:14.147Z,60.80
2018-08-06T09:25:42.835Z,61.60
2018-08-06T09:28:11.439Z,61.70
2018-08-06T09:30:40.062Z,62.80
2018-08-06T09:33:08.718Z,63.00
2018-08-06T09:35:37.344Z,62.60
2018-08-06T09:38:06.176Z,60.40
2018-08-06T09:40:34.901Z,61.10
2018-08-06T09:43:03.499Z,61.80
2018-08-06T09:48:00.458Z,59.50
2018-08-06T09:50:29.080Z,59.00
2018-08-06T09:52:57.741Z,59.80
2018-08-06T09:55:29.599Z,60.70
2018-08-06T09:57:58.209Z,59.40
2018-08-06T10:01:01.207Z,59.60
2018-08-06T10:03:29.815Z,59.80
2018-08-06T10:05:58.638Z,59.40
2018-08-06T10:10:55.551Z,56.30
2018-08-06T10:13:24.194Z,56.60
2018-08-06T10:15:52.868Z,57.10
2018-08-06T10:25:46.380Z,57.10
2018-08-06T10:30:43.440Z,56.40
2018-08-06T10:33:12.033Z,56.10
2018-08-06T10:38:08.995Z,55.50
2018-08-06T10:45:34.190Z,53.00
2018-08-06T10:48:02.828Z,53.20
2018-08-06T10:52:59.765Z,54.90
2018-08-06T10:57:56.705Z,53.40
2018-08-06T11:00:25.341Z,52.10
2018-08-06T11:02:53.974Z,52.70
2018-08-06T11:05:22.631Z,52.90
2018-08-06T11:07:51.278Z,51.50
2018-08-06T11:10:21.140Z,51.90
2018-08-06T11:12:49.777Z,51.60
2018-08-06T11:15:22.478Z,51.00
2018-08-06T11:17:51.129Z,50.40
2018-08-06T11:22:48.757Z,49.70
2018-08-06T11:25:19.288Z,49.60
2018-08-06T11:27:48.104Z,47.70
2018-08-06T11:30:18.675Z,48.40
2018-08-06T11:35:16.492Z,47.50
2018-08-06T11:37:45.157Z,47.90
2018-08-06T11:40:14.860Z,46.60
2018-08-06T11:42:44.197Z,47.90
2018-08-06T11:45:14.985Z,48.10
2018-08-06T11:50:11.947Z,46.50
2018-08-06T11:55:09.463Z,46.50
2018-08-06T11:57:38.096Z,46.90
2018-08-06T12:00:12.457Z,46.10
2018-08-06T12:02:41.062Z,46.40
2018-08-06T12:05:09.781Z,45.40
2018-08-06T12:07:38.678Z,45.50
2018-08-06T12:12:36.976Z,45.60
2018-08-06T12:17:35.391Z,45.40
2018-08-06T12:20:06.200Z,46.10
2018-08-06T12:25:03.201Z,44.40
2018-08-06T12:27:31.850Z,43.90
2018-08-06T12:30:00.584Z,44.40
2018-08-06T12:32:29.229Z,43.50
2018-08-06T12:34:57.957Z,38.60
2018-08-06T12:39:54.849Z,29.00
2018-08-06T12:42:23.455Z,25.70
2018-08-06T12:44:52.085Z,24.60
2018-08-06T12:47:20.702Z,24.20
2018-08-06T12:49:49.380Z,22.90
2018-08-06T12:52:18.071Z,22.70
2018-08-06T12:54:46.692Z,19.70
2018-08-06T12:57:15.426Z,19.70
2018-08-06T12:59:44.062Z,18.90
2018-08-06T13:07:09.395Z,19.00
2018-08-06T13:09:38.113Z,18.60
2018-08-06T13:12:06.814Z,17.50
2018-08-06T13:14:35.485Z,18.10
2018-08-06T13:17:04.112Z,17.70
2018-08-06T13:19:32.801Z,17.20
2018-08-06T13:22:01.430Z,16.90
2018-08-06T13:24:30.060Z,17.10
2018-08-06T13:26:58.712Z,17.40
2018-08-06T13:29:27.422Z,16.90
2018-08-06T13:31:56.109Z,15.00
2018-08-06T13:34:24.755Z,15.30
2018-08-06T13:39:21.691Z,15.90
2018-08-06T13:41:50.315Z,16.40
2018-08-06T13:44:19.111Z,15.80
2018-08-06T13:46:47.749Z,15.90
2018-08-06T13:49:16.423Z,16.10
2018-08-06T13:51:45.072Z,16.30
2018-08-06T13:54:13.691Z,16.60
2018-08-06T13:56:42.341Z,16.10
2018-08-06T13:59:11.077Z,16.50
2018-08-06T14:01:39.635Z,15.90
2018-08-06T14:04:08.261Z,15.40
2018-08-06T14:11:44.867Z,15.00
2018-08-06T14:14:17.749Z,15.30
2018-08-06T14:19:21.933Z,14.50
2018-08-06T14:21:53.440Z,14.90
2018-08-06T14:24:27.754Z,14.30
2018-08-06T14:27:00.707Z,14.50
2018-08-06T14:34:37.566Z,14.60
2018-08-06T14:37:08.213Z,13.90
2018-08-06T14:39:41.217Z,14.60
2018-08-06T14:42:13.105Z,14.80
2018-08-06T14:44:43.952Z,14.80
2018-08-06T14:47:12.538Z,13.80
2018-08-06T14:49:41.277Z,14.10
2018-08-06T14:57:13.889Z,13.60
2018-08-06T14:59:45.647Z,13.60
2018-08-06T15:02:18.053Z,14.00
2018-08-06T15:04:52.085Z,13.90
2018-08-06T15:07:24.685Z,14.10
2018-08-06T15:09:57.268Z,13.40
2018-08-06T15:14:59.069Z,14.10
2018-08-06T15:17:32.348Z,14.20
2018-08-06T15:20:02.789Z,14.20
2018-08-06T15:22:35.379Z,14.70
2018-08-06T15:25:07.530Z,15.20
2018-08-06T15:27:39.325Z,15.80
2018-08-06T15:32:42.907Z,16.50
2018-08-06T15:35:14.948Z,16.00
2018-08-06T15:40:22.887Z,16.10
2018-08-06T15:42:54.764Z,16.60
2018-08-06T15:45:26.333Z,17.30
2018-08-06T15:47:57.954Z,17.20
2018-08-06T15:55:30.105Z,18.00
2018-08-06T16:00:28.436Z,18.50
2018-08-06T16:02:57.124Z,18.90
2018-08-06T16:05:25.780Z,19.10
2018-08-06T16:07:54.461Z,19.50
2018-08-06T16:10:23.142Z,19.80
2018-08-06T16:12:51.721Z,19.90
2018-08-06T16:15:20.348Z,19.60
2018-08-06T16:17:48.999Z,19.50
2018-08-06T16:20:18.595Z,20.20
2018-08-06T16:22:47.277Z,20.40
2018-08-06T16:25:16.166Z,20.50
2018-08-06T16:27:44.806Z,19.90
2018-08-06T16:30:24.629Z,20.30
2018-08-06T16:32:56.364Z,20.50
2018-08-06T16:35:27.697Z,20.70
2018-08-06T16:37:59.858Z,20.40
2018-08-06T16:40:32.081Z,20.00
2018-08-06T16:43:04.106Z,20.50
2018-08-06T16:45:35.536Z,20.80
2018-08-06T16:50:38.672Z,21.40
2018-08-06T16:53:10.610Z,21.30
2018-08-06T16:55:44.385Z,21.40
2018-08-06T16:58:16.294Z,21.30
2018-08-06T17:00:54.374Z,21.90
2018-08-06T17:03:26.019Z,22.30
2018-08-06T17:05:59.603Z,22.70
2018-08-06T17:08:31.140Z,22.50
2018-08-06T17:11:03.052Z,22.80
2018-08-06T17:13:31.254Z,22.90
2018-08-06T17:15:59.902Z,22.70
2018-08-06T17:18:28.606Z,22.80
2018-08-06T17:20:57.293Z,23.00
2018-08-06T17:23:26.099Z,23.70
2018-08-06T17:25:54.892Z,23.70
2018-08-06T17:28:23.531Z,23.80
2018-08-06T17:30:52.158Z,23.80
2018-08-06T17:33:20.788Z,24.10
2018-08-06T17:35:49.433Z,24.00
2018-08-06T17:38:18.131Z,23.60
2018-08-06T17:40:46.806Z,24.40
2018-08-06T17:43:15.404Z,24.40
2018-08-06T17:45:44.119Z,24.70
2018-08-06T17:48:12.741Z,25.30
2018-08-06T17:50:41.369Z,25.90
2018-08-06T17:53:10.044Z,26.10
2018-08-06T17:58:07.558Z,27.60
2018-08-06T18:00:39.367Z,27.40
2018-08-06T18:03:08.026Z,29.00
2018-08-06T18:05:36.684Z,30.90
2018-08-06T18:10:33.780Z,32.90
2018-08-06T18:13:02.402Z,33.90
2018-08-06T18:20:27.724Z,34.70
2018-08-06T18:22:56.386Z,35.00
2018-08-06T18:25:24.997Z,35.20
2018-08-06T18:27:53.672Z,35.60
2018-08-06T18:30:23.022Z,35.60
2018-08-06T18:32:51.651Z,36.20
2018-08-06T18:35:20.630Z,36.40
2018-08-06T18:37:54.555Z,37.10
2018-08-06T18:40:35.546Z,37.20
2018-08-06T18:43:33.772Z,37.50
2018-08-06T18:46:18.398Z,38.20
2018-08-06T18:48:57.525Z,38.60
2018-08-06T18:51:31.489Z,38.90
2018-08-06T19:14:05.462Z,41.50
2018-08-06T19:16:35.323Z,41.40
2018-08-06T19:21:48.708Z,41.90
2018-08-06T19:24:34.904Z,42.10
2018-08-06T19:27:03.510Z,42.10
2018-08-06T19:29:32.130Z,42.50
2018-08-06T19:32:00.972Z,42.90
2018-08-06T19:34:29.636Z,43.10
2018-08-06T19:37:15.950Z,42.90
2018-08-06T19:42:12.845Z,43.60
2018-08-06T19:44:41.455Z,43.60
2018-08-06T19:47:10.050Z,44.10
2018-08-06T19:50:00.889Z,44.30
2018-08-06T19:52:29.492Z,44.40
2018-08-06T19:55:20.761Z,44.90
2018-08-06T19:57:51.719Z,44.60
2018-08-06T20:03:00.677Z,44.80
2018-08-06T20:10:32.813Z,45.80
2018-08-06T20:13:05.392Z,46.00
2018-08-06T20:15:36.722Z,46.30
2018-08-06T20:18:08.102Z,46.80
2018-08-06T20:20:40.271Z,46.90
2018-08-06T20:25:44.920Z,47.40
2018-08-06T20:33:19.328Z,48.20
2018-08-06T20:35:51.369Z,48.30
2018-08-06T20:38:24.191Z,48.30
2018-08-06T20:40:56.411Z,48.60
2018-08-06T20:43:28.139Z,48.60
2018-08-06T20:46:02.172Z,48.90
2018-08-06T20:56:03.417Z,50.30
2018-08-06T21:01:05.508Z,50.90
2018-08-06T21:03:37.719Z,51.00
2018-08-06T21:08:35.640Z,51.70
2018-08-06T21:11:07.685Z,51.90
2018-08-06T21:16:11.517Z,52.10
2018-08-06T21:18:42.448Z,52.10
2018-08-06T21:21:14.708Z,52.60
2018-08-06T21:23:46.540Z,52.90
2018-08-06T21:31:17.899Z,53.70
2018-08-06T21:33:46.333Z,54.00
2018-08-06T21:36:14.930Z,54.20
2018-08-06T21:41:14.648Z,54.80
2018-08-06T21:46:11.895Z,55.20
2018-08-06T21:48:43.259Z,55.40
2018-08-06T21:51:15.047Z,55.50
2018-08-06T21:53:44.517Z,55.60
2018-08-06T21:56:13.801Z,55.80
2018-08-06T21:58:43.181Z,56.00
2018-08-06T22:01:13.068Z,56.10
2018-08-06T22:03:42.587Z,56.20
2018-08-06T22:08:39.391Z,56.80
2018-08-06T22:11:08.937Z,57.20
2018-08-06T22:16:07.841Z,57.70
2018-08-06T22:18:39.045Z,58.00
2018-08-06T22:23:37.093Z,58.60
2018-08-06T22:26:05.711Z,58.60
2018-08-06T22:28:34.304Z,58.90
2018-08-06T22:31:04.436Z,59.10
2018-08-06T22:33:33.398Z,59.30
2018-08-06T22:36:02.471Z,59.40
2018-08-06T22:38:30.885Z,59.50
2018-08-06T22:41:00.015Z,59.60
2018-08-06T22:45:57.385Z,60.30
2018-08-06T22:50:57.093Z,60.60
2018-08-06T22:53:26.647Z,60.90
2018-08-06T22:56:05.471Z,60.80
2018-08-06T22:58:34.752Z,60.60
2018-08-06T23:01:05.685Z,60.70
2018-08-06T23:06:07.932Z,60.70
2018-08-06T23:08:39.924Z,61.50
2018-08-06T23:11:11.854Z,61.80
2018-08-06T23:16:13.849Z,62.60
2018-08-06T23:21:15.333Z,62.30
2018-08-06T23:23:45.768Z,62.20
2018-08-06T23:26:15.763Z,63.00
2018-08-06T23:28:45.848Z,62.90
2018-08-06T23:31:15.048Z,62.70
2018-08-06T23:33:44.239Z,63.30
2018-08-06T23:36:13.659Z,64.20
2018-08-06T23:38:43.169Z,64.90
2018-08-06T23:41:13.466Z,65.50
2018-08-06T23:43:42.010Z,65.90
2018-08-06T23:46:12.413Z,66.30
2018-08-06T23:48:41.491Z,66.40
2018-08-06T23:51:10.108Z,66.50
2018-08-06T23:53:43.245Z,66.80
2018-08-06T23:56:12.085Z,67.20
2018-08-06T23:58:41.187Z,67.70
